createdAt,value
2022-08-09T00:04:38.048Z,52.52
2022-08-09T00:09:41.329Z,52.06
2022-08-09T00:14:47.470Z,49.87
2022-08-09T00:19:49.722Z,50.82
2022-08-09T00:24:54.088Z,50.63
2022-08-09T00:30:16.315Z,50.74
2022-08-09T00:35:20.397Z,53.76
2022-08-09T00:40:22.712Z,55.22
2022-08-09T00:45:34.907Z,54.95
2022-08-09T00:50:56.448Z,56.22
2022-08-09T00:56:04.982Z,57.24
2022-08-09T01:01:18.082Z,57.72
2022-08-09T01:06:54.666Z,58.09
2022-08-09T01:12:13.270Z,59.30
2022-08-09T01:17:22.521Z,58.14
2022-08-09T01:22:48.196Z,58.42
2022-08-09T01:27:57.820Z,58.17
2022-08-09T01:33:01.572Z,58.79
2022-08-09T01:38:27.809Z,58.41
2022-08-09T01:43:41.888Z,58.09
2022-08-09T01:48:55.968Z,58.86
2022-08-09T01:54:02.389Z,58.23
2022-08-09T01:59:11.630Z,59.22
2022-08-09T02:04:20.209Z,59.69
2022-08-09T02:09:25.362Z,58.66
2022-08-09T02:14:51.842Z,59.30
2022-08-09T02:19:54.636Z,59.61
2022-08-09T02:25:20.998Z,60.62
2022-08-09T02:30:31.842Z,59.50
2022-08-09T02:36:02.861Z,59.47
2022-08-09T02:41:07.552Z,59.88
2022-08-09T02:46:13.629Z,59.54
2022-08-09T02:51:21.049Z,61.49
2022-08-09T02:56:26.088Z,60.01
2022-08-09T03:01:58.502Z,61.06
2022-08-09T03:07:14.660Z,61.68
2022-08-09T03:12:18.847Z,61.13
2022-08-09T03:17:41.137Z,60.49
2022-08-09T03:23:15.139Z,60.91
2022-08-09T03:28:27.808Z,60.25
2022-08-09T03:33:53.618Z,60.93
2022-08-09T03:38:53.816Z,61.20
2022-08-09T03:44:15.497Z,61.09
2022-08-09T03:49:21.252Z,62.09
2022-08-09T03:54:31.000Z,61.68
2022-08-09T03:59:56.026Z,60.98
2022-08-09T04:05:27.481Z,61.54
2022-08-09T04:10:49.656Z,61.67
2022-08-09T04:16:20.964Z,61.80
2022-08-09T04:21:24.338Z,62.83
2022-08-09T04:26:37.937Z,61.47
2022-08-09T04:31:47.209Z,62.54
2022-08-09T04:36:50.395Z,62.08
2022-08-09T04:41:52.797Z,62.00
2022-08-09T04:46:59.062Z,62.30
2022-08-09T04:52:07.358Z,61.36
2022-08-09T04:57:54.425Z,61.36
2022-08-09T05:03:12.700Z,61.56
2022-08-09T05:08:36.153Z,61.69
2022-08-09T05:13:56.709Z,62.57
2022-08-09T05:19:22.053Z,62.94
2022-08-09T05:24:27.159Z,64.54
2022-08-09T05:29:31.194Z,63.15
2022-08-09T05:34:34.018Z,63.20
2022-08-09T05:39:43.188Z,62.99
2022-08-09T05:44:50.477Z,61.46
2022-08-09T05:50:25.211Z,61.83
2022-08-09T05:55:20.385Z,60.90
2022-08-09T06:00:24.090Z,59.58
2022-08-09T06:05:31.020Z,59.65
2022-08-09T06:10:50.469Z,59.49
2022-08-09T06:15:53.810Z,56.65
2022-08-09T06:20:58.411Z,50.52
2022-08-09T06:26:01.557Z,46.87
2022-08-09T06:31:03.916Z,43.74
2022-08-09T06:36:27.199Z,42.70
2022-08-09T06:42:00.494Z,39.68
2022-08-09T06:46:54.945Z,38.55
2022-08-09T06:52:16.316Z,38.51
2022-08-09T06:57:18.669Z,40.35
2022-08-09T07:02:49.037Z,38.65
2022-08-09T07:08:10.769Z,38.19
2022-08-09T07:13:29.538Z,38.11
2022-08-09T07:18:51.656Z,34.62
2022-08-09T07:23:57.844Z,33.55
2022-08-09T07:29:19.562Z,32.91
2022-08-09T07:34:22.698Z,31.34
2022-08-09T07:39:40.900Z,30.01
2022-08-09T07:44:51.221Z,30.26
2022-08-09T07:50:14.051Z,29.66
2022-08-09T07:55:17.901Z,36.66
2022-08-09T08:00:36.515Z,31.45
2022-08-09T08:05:58.547Z,31.04
2022-08-09T08:11:15.204Z,30.63
2022-08-09T08:16:29.966Z,29.59
2022-08-09T08:21:53.146Z,28.28
2022-08-09T08:26:56.823Z,30.30
2022-08-09T08:32:03.248Z,30.11
2022-08-09T08:37:25.429Z,30.23
2022-08-09T08:42:47.070Z,29.55
2022-08-09T08:47:49.876Z,28.81
2022-08-09T08:53:22.041Z,28.28
2022-08-09T08:58:27.329Z,27.58
2022-08-09T09:03:50.502Z,28.20
2022-08-09T09:08:59.639Z,27.11
2022-08-09T09:14:22.418Z,28.15
2022-08-09T09:19:42.138Z,27.72
2022-08-09T09:24:59.106Z,28.03
2022-08-09T09:30:40.701Z,27.92
2022-08-09T09:36:02.320Z,28.13
2022-08-09T09:41:06.489Z,28.21
2022-08-09T09:46:43.588Z,28.48
2022-08-09T09:52:04.827Z,26.55
2022-08-09T09:58:01.712Z,27.56
2022-08-09T10:02:48.348Z,27.96
2022-08-09T10:08:27.715Z,28.25
2022-08-09T10:13:52.362Z,27.57
2022-08-09T10:18:56.156Z,26.68
2022-08-09T10:24:03.913Z,26.70
2022-08-09T10:29:32.221Z,25.60
2022-08-09T10:34:32.764Z,26.88
2022-08-09T10:39:40.843Z,25.92
2022-08-09T10:44:57.588Z,26.79
2022-08-09T10:50:41.597Z,25.93
2022-08-09T10:55:55.400Z,26.32
2022-08-09T11:03:02.591Z,27.26
2022-08-09T11:06:45.169Z,25.61
2022-08-09T11:11:56.511Z,23.88
2022-08-09T11:16:58.787Z,23.59
2022-08-09T11:22:16.688Z,23.60
2022-08-09T11:28:04.430Z,24.11
2022-08-09T11:33:19.612Z,26.30
2022-08-09T11:38:41.452Z,26.67
2022-08-09T11:43:49.075Z,27.52
2022-08-09T11:48:54.248Z,26.18
2022-08-09T11:54:28.984Z,25.78
2022-08-09T11:59:36.027Z,27.67
2022-08-09T12:05:00.014Z,28.35
2022-08-09T12:10:03.576Z,29.19
2022-08-09T12:15:49.795Z,29.04
2022-08-09T12:20:50.588Z,26.71
2022-08-09T12:25:54.999Z,27.60
2022-08-09T12:30:57.585Z,26.46
2022-08-09T12:36:27.668Z,27.01
2022-08-09T12:41:39.099Z,27.72
2022-08-09T12:46:44.287Z,30.78
2022-08-09T12:52:10.036Z,27.47
2022-08-09T12:57:46.381Z,28.89
2022-08-09T13:02:54.042Z,28.41
2022-08-09T13:08:40.582Z,27.62
2022-08-09T13:14:40.698Z,27.32
2022-08-09T13:19:06.798Z,27.93
2022-08-09T13:24:42.514Z,28.38
2022-08-09T13:30:03.684Z,29.11
2022-08-09T13:35:25.162Z,28.46
2022-08-09T13:41:50.637Z,28.06
2022-08-09T13:46:44.752Z,25.96
2022-08-09T13:51:22.628Z,25.31
2022-08-09T13:56:31.448Z,26.99
2022-08-09T14:02:00.458Z,26.71
2022-08-09T14:07:04.754Z,26.22
2022-08-09T14:12:15.643Z,27.96
2022-08-09T14:17:22.698Z,28.38
2022-08-09T14:22:25.664Z,24.50
2022-08-09T14:27:27.968Z,28.18
2022-08-09T14:32:37.758Z,27.23
2022-08-09T14:37:41.061Z,27.00
2022-08-09T14:43:23.247Z,27.93
2022-08-09T14:48:44.170Z,25.80
2022-08-09T14:53:52.288Z,24.55
2022-08-09T14:58:56.232Z,27.53
2022-08-09T15:03:58.772Z,26.24
2022-08-09T15:10:03.556Z,26.51
2022-08-09T15:14:45.109Z,26.29
2022-08-09T15:19:59.229Z,24.51
2022-08-09T15:25:39.148Z,25.32
2022-08-09T15:31:03.154Z,27.37
2022-08-09T15:36:30.079Z,24.57
2022-08-09T15:41:54.699Z,26.80
2022-08-09T15:46:56.941Z,26.29
2022-08-09T15:52:04.827Z,27.27
2022-08-09T15:57:08.229Z,26.92
2022-08-09T16:02:13.409Z,27.41
2022-08-09T16:07:39.584Z,27.17
2022-08-09T16:12:53.525Z,27.18
2022-08-09T16:17:59.144Z,28.74
2022-08-09T16:23:21.700Z,28.74
2022-08-09T16:28:25.745Z,27.87
2022-08-09T16:33:30.880Z,25.53
2022-08-09T16:38:57.075Z,26.34
2022-08-09T16:44:17.767Z,26.85
2022-08-09T16:50:29.341Z,26.44
2022-08-09T16:55:03.407Z,28.31
2022-08-09T17:08:45.640Z,26.84
2022-08-09T17:13:06.937Z,27.22
2022-08-09T17:18:17.881Z,28.38
2022-08-09T17:24:19.940Z,28.16
2022-08-09T17:28:51.729Z,28.10
2022-08-09T17:34:20.262Z,27.86
2022-08-09T17:39:52.874Z,28.87
2022-08-09T17:44:56.141Z,29.78
2022-08-09T17:50:10.930Z,29.54
2022-08-09T17:55:19.644Z,28.27
2022-08-09T18:00:35.196Z,29.60
2022-08-09T18:06:03.634Z,30.61
2022-08-09T18:11:18.676Z,29.77
2022-08-09T18:16:49.056Z,30.25
2022-08-09T18:22:13.162Z,30.90
2022-08-09T18:28:03.116Z,31.25
2022-08-09T18:32:43.669Z,31.23
2022-08-09T18:37:49.016Z,31.78
2022-08-09T18:43:16.262Z,32.48
2022-08-09T18:48:37.396Z,32.53
2022-08-09T18:54:02.763Z,33.33
2022-08-09T18:59:29.008Z,33.78
2022-08-09T19:04:40.414Z,34.22
2022-08-09T19:10:15.721Z,34.98
2022-08-09T19:15:20.209Z,36.12
2022-08-09T19:20:42.794Z,36.51
2022-08-09T19:26:01.835Z,34.72
2022-08-09T19:31:25.509Z,37.24
2022-08-09T19:36:32.819Z,36.41
2022-08-09T19:41:35.814Z,36.33
2022-08-09T19:46:50.843Z,37.77
2022-08-09T19:51:56.225Z,36.61
2022-08-09T19:56:59.373Z,37.17
2022-08-09T20:02:07.978Z,37.03
2022-08-09T20:07:59.044Z,36.53
2022-08-09T20:13:06.382Z,38.87
2022-08-09T20:18:23.101Z,35.06
2022-08-09T20:23:51.268Z,35.86
2022-08-09T20:28:55.978Z,35.67
2022-08-09T20:34:18.019Z,36.89
2022-08-09T20:40:15.655Z,37.64
2022-08-09T20:46:00.532Z,37.61
2022-08-09T20:50:46.646Z,39.58
2022-08-09T20:56:01.949Z,40.28
2022-08-09T21:01:34.794Z,40.83
2022-08-09T21:06:46.608Z,43.27
2022-08-09T21:18:23.587Z,41.61
2022-08-09T21:22:55.053Z,42.78
2022-08-09T21:27:57.529Z,43.88
2022-08-09T21:33:18.469Z,44.04
2022-08-09T21:38:38.989Z,43.03
2022-08-09T21:43:59.849Z,44.23
2022-08-09T21:49:02.748Z,45.34
2022-08-09T21:54:27.029Z,45.43
2022-08-09T21:59:47.529Z,45.10
2022-08-09T22:04:57.301Z,44.32
2022-08-09T22:10:22.981Z,43.61
2022-08-09T22:15:34.614Z,43.53
2022-08-09T22:20:39.896Z,43.93
2022-08-09T22:26:07.936Z,44.49
2022-08-09T22:31:33.070Z,43.07
2022-08-09T22:36:45.756Z,45.20
2022-08-09T22:41:49.690Z,45.16
2022-08-09T22:48:10.305Z,45.88
2022-08-09T22:52:15.640Z,44.99
2022-08-09T22:57:37.169Z,44.00
2022-08-09T23:02:59.468Z,44.35
2022-08-09T23:08:22.758Z,43.56
2022-08-09T23:13:50.409Z,46.35
2022-08-09T23:19:10.677Z,45.95
2022-08-09T23:24:12.757Z,45.47
2022-08-09T23:29:18.370Z,45.15
2022-08-09T23:34:20.606Z,42.13
2022-08-09T23:39:41.460Z,40.48
2022-08-09T23:44:43.798Z,41.99
2022-08-09T23:50:05.097Z,42.25
2022-08-09T23:55:25.727Z,43.54
